HEAX

El Nouzha Airport

Alexandria, Egypt
METAR HEAX 201400Z 03005KT 6000 NSC 21/11 Q1010 NOSIG
Observed Flight Rules
Feb-20 @ 14:00 UTC (3 hours ago) Marginal Visual Flight Rules
Wind Visibility Clouds
30° at 5 knots 6,003 meters
  • Clear skies
Temperatures Readings
Current 21°C / 70°F
Dewpoint 11°C / 52°F
Humidity 53%
Altimeter 29.82" Hg
Pressure 1010 hPa
Elevation 7
METAR HEAX 201400Z 03005KT 6000 NSC 21/11 Q1010 NOSIG
Observed Flight Rules
Feb-20 @ 14:00 UTC
(3 hours ago)
MVFR
Wind Visibility
30° at 5 knots 6,003 meters
Clouds
  • Clear skies
Temperature Dewpoint
21°C / 70°F 11°C / 52°F
Humidity Altimeter Pressure
53% 29.82" Hg 1010 hPa